Latest Weather Observations for Gympie

IDQ60901

Issued at 7:11 pm EST Monday 6 July 2015 (issued every 10 minutes, with the page automatically refreshed every 10 minutes)

About weather observations | Map of Brisbane area stations | Latest observations for Brisbane area | Other Formats
Station Details ID: 040093 Name: GYMPIE Lat: -26.18 Lon: 152.64 Height: 64.5 m
Data from the previous 72 hours. | See also: Recent months at Gympie
Date/Time
EST
Tmp

°C
App
Tmp
°C
Dew
Point
°C
Rel
Hum
%
Delta-T

°C
Wind Press
QNH
hPa
Press
MSL
hPa
Rain
since
9 am
mm
Dir
 
Spd
km/h
Gust
km/h
Spd
kts
Gust
kts
06/07:00pm 14.3 14.3 9.7 74 2.4 CALM 0 0 0 0 1017.3 1017.3 0.0
06/06:30pm 15.6 14.8 9.7 68 3.1 N 4 6 2 3 1017.0 1017.0 0.0
06/06:00pm 16.7 15.6 9.9 64 3.6 N 6 7 3 4 1016.6 1016.6 0.0
06/05:30pm 18.9 17.7 9.4 54 5.0 N 6 6 3 3 1016.3 1016.3 0.0
06/05:00pm 20.3 19.8 10.7 54 5.2 N 4 6 2 3 1016.2 1016.2 0.0
06/04:30pm 21.7 20.3 8.9 44 6.8 N 6 9 3 5 1016.0 1016.0 0.0
06/04:00pm 22.2 19.9 7.6 39 7.6 N 9 13 5 7 1015.9 1015.9 0.0
06/03:30pm 22.7 21.1 8.8 41 7.4 NNW 7 11 4 6 1015.9 1015.9 0.0
06/03:00pm 22.4 20.6 8.1 40 7.5 N 7 13 4 7 1016.3 1016.3 0.0
06/02:30pm 22.4 20.7 8.5 41 7.4 NNW 7 15 4 8 1016.5 1016.5 0.0
06/02:00pm 22.5 20.8 8.2 40 7.5 NW 7 15 4 8 1016.7 1016.7 0.0
06/01:30pm 22.3 20.6 8.4 41 7.4 NNW 7 11 4 6 1016.9 1016.9 0.0
06/01:00pm 22.7 21.0 8.4 40 7.6 NNW 7 13 4 7 1017.3 1017.3 0.0
06/12:00pm 21.4 18.9 8.0 42 7.0 NNW 11 17 6 9 1018.3 1018.3 0.0
06/11:30am 20.9 18.9 8.5 45 6.5 NW 9 15 5 8 1019.0 1019.0 0.0
06/11:00am 20.0 20.6 13.0 64 4.0 NW 2 6 1 3 1019.6 1019.6 0.0
06/10:30am 18.5 19.8 14.0 75 2.6 CALM 0 0 0 0 1020.0 1020.0 0.0
06/10:00am 15.6 16.3 13.3 86 1.3 S 2 4 1 2 1020.4 1020.4 0.0
06/09:30am 13.3 14.0 12.2 93 0.6 CALM 0 0 0 0 1020.6 1020.6 0.0
06/09:00am 11.5 11.9 11.2 98 0.2 CALM 0 0 0 0 1020.7 1020.7 0.0
06/08:30am 9.8 9.8 9.7 99 0.1 CALM 0 0 0 0 1020.7 1020.7 0.0
06/08:00am 8.8 8.5 8.7 99 0.0 CALM 0 0 0 0 1020.7 1020.7 0.0
06/07:30am 8.4 8.0 8.3 99 0.0 CALM 0 0 0 0 1020.5 1020.5 0.0
06/07:00am 8.4 8.0 8.3 99 0.0 CALM 0 0 0 0 1020.4 1020.4 0.0
06/06:30am 8.4 8.0 8.3 99 0.0 CALM 0 0 0 0 1020.3 1020.3 0.0
06/06:00am 8.3 7.9 8.2 99 0.0 CALM 0 0 0 0 1020.1 1020.1 0.0
06/05:30am 8.2 7.3 7.9 98 0.1 NNW 2 4 1 2 1020.0 1020.0 0.0
06/05:00am 8.4 7.9 8.0 97 0.2 CALM 0 0 0 0 1019.8 1019.8 0.0
06/04:00am 9.6 9.0 9.1 97 0.2 W 2 2 1 1 1019.9 1019.9 0.0
06/03:30am 10.2 9.8 9.7 97 0.3 NNW 2 4 1 2 1020.1 1020.1 0.0
06/03:00am 10.4 10.4 9.9 97 0.3 CALM 0 0 0 0 1020.1 1020.1 0.0
06/02:30am 10.6 10.7 10.3 98 0.2 CALM 0 0 0 0 1020.3 1020.3 0.0
06/02:00am 10.5 10.6 10.2 98 0.2 CALM 0 0 0 0 1020.6 1020.6 0.0
06/01:30am 10.3 10.4 10.0 98 0.2 CALM 0 0 0 0 1020.9 1020.9 0.0
06/01:00am 10.2 10.2 9.9 98 0.2 CALM 0 0 0 0 1021.2 1021.2 0.0
06/12:30am 9.9 9.8 9.3 96 0.3 CALM 0 0 0 0 1021.3 1021.3 0.0
06/12:00am 10.1 10.0 9.3 95 0.4 CALM 0 0 0 0 1021.4 1021.4 0.0
 
Date/Time
EST
Tmp

°C
App
Tmp
°C
Dew
Point
°C
Rel
Hum
%
Delta-T

°C
Wind Press
QNH
hPa
Press
MSL
hPa
Rain
since
9 am
mm
Dir
 
Spd
km/h
Gust
km/h
Spd
kts
Gust
kts
05/11:30pm 11.2 11.5 10.9 98 0.2 CALM 0 0 0 0 1021.5 1021.5 0.0
05/11:00pm 11.2 11.4 10.6 96 0.3 CALM 0 0 0 0 1021.5 1021.5 0.0
05/10:30pm 11.4 11.6 10.5 94 0.5 CALM 0 0 0 0 1021.4 1021.4 0.0
05/10:00pm 12.0 12.2 10.7 92 0.7 CALM 0 0 0 0 1021.5 1021.5 0.0
05/09:30pm 12.8 12.9 11.5 92 0.7 SSW 2 4 1 2 1021.6 1021.6 0.0
05/09:00pm 13.6 14.3 12.3 92 0.7 CALM 0 0 0 0 1021.5 1021.5 0.0
05/08:30pm 13.7 14.1 12.4 92 0.7 WSW 2 6 1 3 1021.4 1021.4 0.0
05/08:00pm 13.8 14.6 12.4 91 0.8 CALM 0 0 0 0 1021.1 1021.1 0.0
05/07:30pm 13.7 14.4 12.1 90 0.9 CALM 0 0 0 0 1021.0 1021.0 0.0
05/07:00pm 14.4 15.2 12.6 89 1.0 CALM 0 0 0 0 1021.0 1021.0 0.0
05/06:30pm 14.2 14.9 12.2 88 1.1 CALM 0 0 0 0 1020.6 1020.6 0.0
05/06:00pm 14.7 15.5 12.4 86 1.3 CALM 0 0 0 0 1020.4 1020.4 0.0
05/05:30pm 15.8 16.0 12.9 83 1.6 N 4 6 2 3 1020.2 1020.2 0.0
05/05:00pm 17.5 18.3 12.4 72 2.8 CALM 0 0 0 0 1020.1 1020.1 0.0
05/04:30pm 18.7 19.1 12.5 67 3.5 N 2 2 1 1 1020.0 1020.0 0.0
05/04:00pm 19.8 19.2 11.8 60 4.4 NNE 6 9 3 5 1020.0 1020.0 0.0
05/03:30pm 20.4 19.7 11.3 56 5.0 N 6 9 3 5 1019.9 1019.9 0.0
05/03:00pm 20.6 18.8 11.0 54 5.3 N 11 15 6 8 1020.0 1020.0 0.0
05/02:30pm 20.6 19.9 10.1 51 5.7 NNE 4 9 2 5 1019.9 1019.9 0.0
05/02:00pm 22.2 22.0 10.4 47 6.5 S 2 6 1 3 1020.1 1020.1 0.0
05/01:30pm 20.5 19.6 9.4 49 5.9 N 4 7 2 4 1020.5 1020.5 0.0
05/01:00pm 20.9 20.7 10.4 51 5.7 SE 2 7 1 4 1020.9 1020.9 0.0
05/12:30pm 21.0 20.6 11.1 53 5.5 W 4 6 2 3 1021.3 1021.3 0.0
05/12:00pm 20.2 19.7 10.6 54 5.2 ENE 4 6 2 3 1021.7 1021.7 0.0
05/11:30am 19.3 19.8 12.8 66 3.7 SSW 2 6 1 3 1022.3 1022.3 0.0
05/11:00am 17.5 18.4 12.8 74 2.6 CALM 0 4 0 2 1023.1 1023.0 0.0
05/10:30am 16.1 16.1 12.5 79 2.0 SSE 4 6 2 3 1023.5 1023.4 0.0
05/10:00am 15.1 15.4 12.1 82 1.6 WSW 2 4 1 2 1023.6 1023.5 0.0
05/09:30am 14.1 14.8 12.1 88 1.1 CALM 0 0 0 0 1023.7 1023.6 0.0
05/09:00am 13.0 13.2 11.7 92 0.7 SSE 2 4 1 2 1023.4 1023.3 0.0
05/08:30am 12.0 12.0 11.2 95 0.4 SE 2 4 1 2 1023.2 1023.1 0.0
05/08:00am 11.8 12.3 11.5 98 0.2 CALM 0 0 0 0 1022.8 1022.8 0.0
05/07:30am 11.1 11.4 10.8 98 0.2 CALM 0 0 0 0 1022.4 1022.4 0.0
05/07:00am 10.5 10.6 10.2 98 0.2 CALM 0 0 0 0 1022.1 1022.1 0.0
05/06:30am 10.4 10.5 10.1 98 0.2 CALM 0 0 0 0 1021.9 1021.9 0.0
05/06:00am 10.4 10.5 10.1 98 0.2 CALM 0 0 0 0 1021.7 1021.7 0.0
05/05:30am 10.3 10.4 10.1 99 0.1 CALM 0 0 0 0 1021.5 1021.5 0.0
05/05:00am 10.0 10.0 9.7 98 0.2 CALM 0 0 0 0 1021.3 1021.3 0.0
05/04:30am 9.8 9.7 9.5 98 0.1 CALM 0 0 0 0 1021.2 1021.2 0.0
05/04:00am 9.7 9.6 9.4 98 0.1 CALM 0 0 0 0 1021.2 1021.2 0.0
05/03:30am 9.6 9.5 9.3 98 0.1 CALM 0 0 0 0 1021.2 1021.2 0.0
05/03:00am 9.5 9.3 9.2 98 0.1 CALM 0 0 0 0 1021.3 1021.3 0.0
05/02:30am 9.9 9.5 9.8 99 0.1 SW 2 4 1 2 1021.4 1021.4 0.0
05/02:00am 9.8 9.3 9.3 97 0.2 S 2 2 1 1 1021.7 1021.7 0.0
05/01:30am 10.0 9.9 9.5 97 0.3 CALM 0 6 0 3 1021.9 1021.9 0.0
05/01:00am 10.9 11.1 10.4 97 0.3 CALM 0 0 0 0 1022.2 1022.2 0.0
05/12:30am 10.8 9.7 10.5 98 0.2 N 7 11 4 6 1022.4 1022.4 0.0
05/12:00am 10.4 9.6 9.8 96 0.3 S 4 4 2 2 1022.4 1022.4 0.0
 
Date/Time
EST
Tmp

°C
App
Tmp
°C
Dew
Point
°C
Rel
Hum
%
Delta-T

°C
Wind Press
QNH
hPa
Press
MSL
hPa
Rain
since
9 am
mm
Dir
 
Spd
km/h
Gust
km/h
Spd
kts
Gust
kts
04/11:30pm 11.0 10.7 10.1 94 0.5 WSW 2 4 1 2 1022.5 1022.5 0.0
04/11:00pm 11.4 11.2 10.5 94 0.5 NW 2 4 1 2 1022.8 1022.8 0.0
04/10:30pm 11.9 12.3 11.3 96 0.3 CALM 0 0 0 0 1022.8 1022.8 0.0
04/10:00pm 11.5 11.7 10.7 95 0.4 CALM 0 0 0 0 1022.7 1022.7 0.0
04/09:30pm 12.0 12.4 11.1 94 0.5 CALM 0 0 0 0 1022.6 1022.6 0.0
04/09:00pm 11.9 12.2 10.8 93 0.6 CALM 0 0 0 0 1022.7 1022.7 0.0
04/08:30pm 11.9 12.2 10.8 93 0.6 CALM 0 2 0 1 1022.7 1022.7 0.0
04/08:00pm 12.4 12.8 11.1 92 0.7 CALM 0 0 0 0 1022.6 1022.6 0.0
04/07:30pm 12.8 13.2 11.2 90 0.8 CALM 0 2 0 1 1022.4 1022.4 0.0
04/07:00pm 13.2 13.5 10.9 86 1.2 CALM 0 0 0 0 1021.9 1021.9 0.0
04/06:30pm 14.5 14.9 11.3 81 1.7 CALM 0 0 0 0 1021.3 1021.3 0.0
04/06:00pm 15.7 16.2 11.5 76 2.3 CALM 0 0 0 0 1020.8 1020.8 0.0
04/05:30pm 17.6 17.4 11.9 69 3.1 E 4 9 2 5 1020.3 1020.3 0.0
04/05:00pm 18.4 18.1 11.5 64 3.8 ESE 4 9 2 5 1020.0 1020.0 0.0
04/04:30pm 19.3 18.7 11.6 61 4.3 SE 6 9 3 5 1019.9 1019.9 0.0
04/04:00pm 20.1 19.3 11.6 58 4.7 ESE 7 9 4 5 1019.7 1019.7 0.0
04/03:30pm 20.8 19.9 11.4 55 5.2 SE 7 13 4 7 1019.7 1019.7 0.0
04/03:00pm 20.3 19.4 11.2 56 5.0 SSE 7 11 4 6 1019.9 1019.9 0.0
04/02:30pm 21.1 20.5 11.7 55 5.2 SSE 6 13 3 7 1019.9 1019.9 0.0
04/02:00pm 19.5 18.6 11.3 59 4.5 SSE 7 17 4 9 1020.1 1020.1 0.0
04/01:30pm 21.4 20.6 12.8 58 4.9 ESE 9 15 5 8 1020.2 1020.2 0.0
04/01:00pm 21.1 21.1 12.5 58 4.9 ESE 4 11 2 6 1020.6 1020.6 0.0
04/12:30pm 20.3 20.3 12.3 60 4.5 SE 4 7 2 4 1021.1 1021.1 0.0
04/12:00pm 20.1 19.4 12.1 60 4.5 SSE 7 15 4 8 1021.7 1021.7 0.0
04/11:30am 19.6 18.7 12.6 64 3.9 SE 9 17 5 9 1022.3 1022.3 0.0
04/11:00am 18.9 17.9 12.2 65 3.7 SE 9 13 5 7 1022.7 1022.7 0.0
04/10:30am 18.6 18.0 12.4 67 3.5 SE 7 13 4 7 1023.2 1023.1 0.0
04/10:00am 17.6 16.5 11.9 69 3.1 SSE 9 17 5 9 1023.4 1023.3 0.0
04/09:30am 15.9 15.2 11.5 75 2.4 SE 6 13 3 7 1023.7 1023.6 0.0
04/09:00am 13.6 13.8 10.4 81 1.7 CALM 0 0 0 0 1023.6 1023.5 0.0
04/08:30am 10.5 10.3 9.1 91 0.7 CALM 0 0 0 0 1023.7 1023.6 0.0
04/08:00am 7.8 7.2 7.5 98 0.1 CALM 0 0 0 0 1023.7 1023.6 0.0
04/07:30am 7.0 6.2 6.6 97 0.2 CALM 0 0 0 0 1023.6 1023.5 0.0
04/07:00am 6.5 5.6 6.1 97 0.2 CALM 0 0 0 0 1023.5 1023.4 0.0
04/06:30am 6.7 5.9 6.4 98 0.1 CALM 0 0 0 0 1023.1 1023.0 0.0
04/06:00am 6.5 5.6 6.2 98 0.1 CALM 0 0 0 0 1022.8 1022.8 0.0
04/05:30am 6.2 5.3 5.9 98 0.1 CALM 0 0 0 0 1022.7 1022.7 0.0
04/05:00am 6.0 5.0 5.7 98 0.1 CALM 0 0 0 0 1022.5 1022.5 0.0
04/04:30am 5.8 4.8 5.4 97 0.2 CALM 0 0 0 0 1022.2 1022.2 0.0
04/04:00am 5.8 4.8 5.5 98 0.1 CALM 0 0 0 0 1022.0 1022.0 0.0
04/03:30am 5.3 4.2 4.9 97 0.2 CALM 0 0 0 0 1022.1 1022.1 0.0
04/03:00am 5.1 3.9 4.5 96 0.3 CALM 0 0 0 0 1022.1 1022.1 0.0
04/02:30am 5.9 4.9 5.6 98 0.1 CALM 0 0 0 0 1022.1 1022.1 0.0
04/02:00am 5.9 4.9 5.5 97 0.2 CALM 0 0 0 0 1022.2 1022.2 0.0
04/01:30am 5.7 4.5 4.8 94 0.4 CALM 0 0 0 0 1022.3 1022.3 0.0
04/01:00am 6.6 5.3 5.9 95 0.3 N 2 4 1 2 1022.6 1022.6 0.0
04/12:30am 7.1 5.6 6.7 97 0.2 N 4 6 2 3 1022.7 1022.7 0.0
04/12:00am 7.2 6.4 6.3 94 0.4 CALM 0 0 0 0 1022.8 1022.8 0.0
 
Date/Time
EST
Tmp

°C
App
Tmp
°C
Dew
Point
°C
Rel
Hum
%
Delta-T

°C
Wind Press
QNH
hPa
Press
MSL
hPa
Rain
since
9 am
mm
Dir
 
Spd
km/h
Gust
km/h
Spd
kts
Gust
kts
03/11:30pm 7.1 6.2 6.0 93 0.5 CALM 0 0 0 0 1022.8 1022.8 0.0
03/11:00pm 7.6 6.8 6.7 94 0.4 CALM 0 0 0 0 1023.2 1023.1 0.0
03/10:30pm 7.7 6.9 6.6 93 0.5 CALM 0 0 0 0 1023.4 1023.3 0.0
03/10:00pm 8.4 7.3 6.9 90 0.7 WSW 2 4 1 2 1023.4 1023.3 0.0
03/09:30pm 8.7 7.6 7.0 89 0.8 WSW 2 4 1 2 1023.4 1023.3 0.0
03/09:00pm 9.2 7.9 7.5 89 0.8 SSW 4 4 2 2 1023.7 1023.6 0.0
03/08:30pm 9.9 8.6 7.5 85 1.1 SW 4 6 2 3 1023.6 1023.5 0.0
03/08:00pm 9.4 8.8 7.2 86 1.0 CALM 0 0 0 0 1023.5 1023.4 0.0
03/07:30pm 10.9 10.3 7.4 79 1.7 CALM 0 0 0 0 1023.2 1023.1 0.0

Latest Capital City Observations: Canberra | Sydney | Melbourne | Brisbane | Adelaide | Perth | Hobart | Darwin

Other Formats:

Comma delimited format used in spreadsheet applications
http://www.bom.gov.au/fwo/IDQ60901/IDQ60901.94566.axf

JavaScript Object Notation format (JSON) in row-major order
http://www.bom.gov.au/fwo/IDQ60901/IDQ60901.94566.json